sensor_id;sensor_type;location;lat;lon;timestamp;P1;durP1;ratioP1;P2;durP2;ratioP2
28245;SDS011;15510;52.512;13.300;2022-09-09T00:00:27;6.85;;;5.75;;
28245;SDS011;15510;52.512;13.300;2022-09-09T00:03:10;7.25;;;5.93;;
28245;SDS011;15510;52.512;13.300;2022-09-09T00:05:54;8.02;;;6.38;;
28245;SDS011;15510;52.512;13.300;2022-09-09T00:08:52;6.85;;;6.25;;
28245;SDS011;15510;52.512;13.300;2022-09-09T00:11:24;7.40;;;6.70;;
28245;SDS011;15510;52.512;13.300;2022-09-09T00:13:56;7.55;;;6.85;;
28245;SDS011;15510;52.512;13.300;2022-09-09T00:16:25;7.15;;;6.15;;
28245;SDS011;15510;52.512;13.300;2022-09-09T00:21:35;7.13;;;6.47;;
28245;SDS011;15510;52.512;13.300;2022-09-09T00:24:10;9.40;;;6.45;;
28245;SDS011;15510;52.512;13.300;2022-09-09T00:26:48;7.78;;;7.07;;
28245;SDS011;15510;52.512;13.300;2022-09-09T00:32:00;9.68;;;6.95;;
28245;SDS011;15510;52.512;13.300;2022-09-09T00:34:33;7.32;;;6.65;;
28245;SDS011;15510;52.512;13.300;2022-09-09T00:37:01;7.63;;;6.88;;
28245;SDS011;15510;52.512;13.300;2022-09-09T00:39:32;7.65;;;6.75;;
28245;SDS011;15510;52.512;13.300;2022-09-09T00:44:37;7.47;;;6.78;;
28245;SDS011;15510;52.512;13.300;2022-09-09T00:50:03;8.50;;;7.63;;
28245;SDS011;15510;52.512;13.300;2022-09-09T00:53:04;7.03;;;6.47;;
28245;SDS011;15510;52.512;13.300;2022-09-09T00:55:48;8.00;;;7.15;;
28245;SDS011;15510;52.512;13.300;2022-09-09T00:58:24;8.60;;;6.80;;
28245;SDS011;15510;52.512;13.300;2022-09-09T01:01:12;11.80;;;7.22;;
28245;SDS011;15510;52.512;13.300;2022-09-09T01:03:54;8.23;;;6.72;;
28245;SDS011;15510;52.512;13.300;2022-09-09T01:06:31;7.15;;;6.55;;
28245;SDS011;15510;52.512;13.300;2022-09-09T01:12:14;9.15;;;7.25;;
28245;SDS011;15510;52.512;13.300;2022-09-09T01:14:45;7.57;;;6.80;;
28245;SDS011;15510;52.512;13.300;2022-09-09T01:17:32;9.15;;;6.93;;
28245;SDS011;15510;52.512;13.300;2022-09-09T01:20:29;7.32;;;6.60;;
28245;SDS011;15510;52.512;13.300;2022-09-09T01:23:16;7.65;;;7.03;;
28245;SDS011;15510;52.512;13.300;2022-09-09T01:29:12;7.85;;;7.05;;
28245;SDS011;15510;52.512;13.300;2022-09-09T01:31:56;7.93;;;7.13;;
28245;SDS011;15510;52.512;13.300;2022-09-09T01:34:24;7.35;;;6.75;;
28245;SDS011;15510;52.512;13.300;2022-09-09T01:39:36;7.68;;;7.07;;
28245;SDS011;15510;52.512;13.300;2022-09-09T01:42:08;8.40;;;7.40;;
28245;SDS011;15510;52.512;13.300;2022-09-09T01:44:36;7.22;;;6.63;;
28245;SDS011;15510;52.512;13.300;2022-09-09T01:47:03;11.65;;;8.57;;
28245;SDS011;15510;52.512;13.300;2022-09-09T01:49:30;8.38;;;7.65;;
28245;SDS011;15510;52.512;13.300;2022-09-09T01:52:00;7.93;;;6.40;;
28245;SDS011;15510;52.512;13.300;2022-09-09T01:54:31;8.27;;;7.45;;
28245;SDS011;15510;52.512;13.300;2022-09-09T01:57:11;8.27;;;7.50;;
28245;SDS011;15510;52.512;13.300;2022-09-09T02:05:39;9.00;;;7.57;;
28245;SDS011;15510;52.512;13.300;2022-09-09T02:08:29;7.68;;;6.95;;
28245;SDS011;15510;52.512;13.300;2022-09-09T02:11:22;8.65;;;7.00;;
28245;SDS011;15510;52.512;13.300;2022-09-09T02:14:03;8.38;;;7.55;;
28245;SDS011;15510;52.512;13.300;2022-09-09T02:16:47;7.82;;;7.13;;
28245;SDS011;15510;52.512;13.300;2022-09-09T02:19:29;8.30;;;7.47;;
28245;SDS011;15510;52.512;13.300;2022-09-09T02:22:07;8.15;;;7.25;;
28245;SDS011;15510;52.512;13.300;2022-09-09T02:24:35;7.60;;;6.70;;
28245;SDS011;15510;52.512;13.300;2022-09-09T02:27:22;8.05;;;7.25;;
28245;SDS011;15510;52.512;13.300;2022-09-09T02:29:49;7.97;;;7.13;;
28245;SDS011;15510;52.512;13.300;2022-09-09T02:32:20;7.60;;;6.90;;
28245;SDS011;15510;52.512;13.300;2022-09-09T02:34:53;12.00;;;7.35;;
28245;SDS011;15510;52.512;13.300;2022-09-09T02:37:23;7.30;;;6.60;;
28245;SDS011;15510;52.512;13.300;2022-09-09T02:39:55;7.70;;;6.47;;
28245;SDS011;15510;52.512;13.300;2022-09-09T02:42:22;7.68;;;6.97;;
28245;SDS011;15510;52.512;13.300;2022-09-09T02:44:50;7.50;;;6.80;;
28245;SDS011;15510;52.512;13.300;2022-09-09T02:47:35;8.80;;;7.70;;
28245;SDS011;15510;52.512;13.300;2022-09-09T02:50:34;10.60;;;6.75;;
28245;SDS011;15510;52.512;13.300;2022-09-09T02:56:18;7.75;;;7.03;;
28245;SDS011;15510;52.512;13.300;2022-09-09T02:58:45;12.93;;;6.85;;
28245;SDS011;15510;52.512;13.300;2022-09-09T03:01:12;9.00;;;7.78;;
28245;SDS011;15510;52.512;13.300;2022-09-09T03:03:38;6.82;;;6.22;;
28245;SDS011;15510;52.512;13.300;2022-09-09T03:06:10;7.13;;;6.43;;
28245;SDS011;15510;52.512;13.300;2022-09-09T03:08:37;7.65;;;6.85;;
28245;SDS011;15510;52.512;13.300;2022-09-09T03:11:03;8.13;;;7.18;;
28245;SDS011;15510;52.512;13.300;2022-09-09T03:13:32;6.95;;;6.15;;
28245;SDS011;15510;52.512;13.300;2022-09-09T03:15:58;8.35;;;7.03;;
28245;SDS011;15510;52.512;13.300;2022-09-09T03:18:25;9.82;;;6.65;;
28245;SDS011;15510;52.512;13.300;2022-09-09T03:20:53;7.22;;;6.45;;
28245;SDS011;15510;52.512;13.300;2022-09-09T03:23:19;7.13;;;6.53;;
28245;SDS011;15510;52.512;13.300;2022-09-09T03:25:47;7.50;;;6.82;;
28245;SDS011;15510;52.512;13.300;2022-09-09T03:28:15;7.13;;;6.28;;
28245;SDS011;15510;52.512;13.300;2022-09-09T03:30:42;7.75;;;6.15;;
28245;SDS011;15510;52.512;13.300;2022-09-09T03:33:08;7.15;;;6.40;;
28245;SDS011;15510;52.512;13.300;2022-09-09T03:35:33;6.80;;;6.13;;
28245;SDS011;15510;52.512;13.300;2022-09-09T03:38:00;7.30;;;6.60;;
28245;SDS011;15510;52.512;13.300;2022-09-09T03:40:28;8.32;;;6.20;;
28245;SDS011;15510;52.512;13.300;2022-09-09T03:42:54;7.80;;;5.95;;
28245;SDS011;15510;52.512;13.300;2022-09-09T03:45:19;7.15;;;6.35;;
28245;SDS011;15510;52.512;13.300;2022-09-09T03:47:45;6.43;;;5.55;;
28245;SDS011;15510;52.512;13.300;2022-09-09T03:50:11;7.40;;;6.35;;
28245;SDS011;15510;52.512;13.300;2022-09-09T03:52:42;8.18;;;6.60;;
28245;SDS011;15510;52.512;13.300;2022-09-09T03:55:15;7.32;;;5.95;;
28245;SDS011;15510;52.512;13.300;2022-09-09T03:57:41;8.95;;;6.18;;
28245;SDS011;15510;52.512;13.300;2022-09-09T04:00:08;6.38;;;5.78;;
28245;SDS011;15510;52.512;13.300;2022-09-09T04:02:48;8.82;;;6.40;;
28245;SDS011;15510;52.512;13.300;2022-09-09T04:05:15;6.45;;;5.85;;
28245;SDS011;15510;52.512;13.300;2022-09-09T04:07:43;5.90;;;5.40;;
28245;SDS011;15510;52.512;13.300;2022-09-09T04:10:08;7.82;;;5.35;;
28245;SDS011;15510;52.512;13.300;2022-09-09T04:12:37;5.53;;;5.03;;
28245;SDS011;15510;52.512;13.300;2022-09-09T04:15:03;7.25;;;5.75;;
28245;SDS011;15510;52.512;13.300;2022-09-09T04:17:29;6.43;;;5.80;;
28245;SDS011;15510;52.512;13.300;2022-09-09T04:19:55;5.50;;;4.95;;
28245;SDS011;15510;52.512;13.300;2022-09-09T04:22:22;6.28;;;5.68;;
28245;SDS011;15510;52.512;13.300;2022-09-09T04:24:48;6.15;;;5.55;;
28245;SDS011;15510;52.512;13.300;2022-09-09T04:27:15;6.10;;;5.50;;
28245;SDS011;15510;52.512;13.300;2022-09-09T04:29:41;5.53;;;5.03;;
28245;SDS011;15510;52.512;13.300;2022-09-09T04:32:07;6.93;;;5.20;;
28245;SDS011;15510;52.512;13.300;2022-09-09T04:34:33;6.18;;;5.28;;
28245;SDS011;15510;52.512;13.300;2022-09-09T04:36:58;6.75;;;4.85;;
28245;SDS011;15510;52.512;13.300;2022-09-09T04:39:25;5.82;;;5.15;;
28245;SDS011;15510;52.512;13.300;2022-09-09T04:41:51;7.85;;;5.57;;
28245;SDS011;15510;52.512;13.300;2022-09-09T04:44:17;7.88;;;5.57;;
28245;SDS011;15510;52.512;13.300;2022-09-09T04:46:42;6.93;;;6.13;;
28245;SDS011;15510;52.512;13.300;2022-09-09T04:49:09;6.03;;;5.53;;
28245;SDS011;15510;52.512;13.300;2022-09-09T04:51:35;6.40;;;5.20;;
28245;SDS011;15510;52.512;13.300;2022-09-09T04:54:01;6.10;;;5.13;;
28245;SDS011;15510;52.512;13.300;2022-09-09T04:56:27;9.05;;;5.20;;
28245;SDS011;15510;52.512;13.300;2022-09-09T04:58:56;5.95;;;4.75;;
28245;SDS011;15510;52.512;13.300;2022-09-09T05:01:27;5.35;;;4.85;;
28245;SDS011;15510;52.512;13.300;2022-09-09T05:03:59;5.53;;;5.03;;
28245;SDS011;15510;52.512;13.300;2022-09-09T05:06:25;5.32;;;4.85;;
28245;SDS011;15510;52.512;13.300;2022-09-09T05:08:56;5.22;;;4.32;;
28245;SDS011;15510;52.512;13.300;2022-09-09T05:11:26;7.35;;;5.32;;
28245;SDS011;15510;52.512;13.300;2022-09-09T05:13:59;13.77;;;4.95;;
28245;SDS011;15510;52.512;13.300;2022-09-09T05:16:24;6.45;;;4.15;;
28245;SDS011;15510;52.512;13.300;2022-09-09T05:18:50;9.50;;;6.43;;
28245;SDS011;15510;52.512;13.300;2022-09-09T05:21:17;5.40;;;4.38;;
28245;SDS011;15510;52.512;13.300;2022-09-09T05:23:45;4.68;;;4.07;;
28245;SDS011;15510;52.512;13.300;2022-09-09T05:26:12;5.50;;;3.88;;
28245;SDS011;15510;52.512;13.300;2022-09-09T05:28:39;6.03;;;4.07;;
28245;SDS011;15510;52.512;13.300;2022-09-09T05:31:06;4.75;;;3.95;;
28245;SDS011;15510;52.512;13.300;2022-09-09T05:33:35;5.10;;;3.92;;
28245;SDS011;15510;52.512;13.300;2022-09-09T05:36:02;6.72;;;4.38;;
28245;SDS011;15510;52.512;13.300;2022-09-09T05:38:30;4.72;;;3.70;;
28245;SDS011;15510;52.512;13.300;2022-09-09T05:41:01;8.70;;;6.22;;
28245;SDS011;15510;52.512;13.300;2022-09-09T05:43:29;3.67;;;3.35;;
28245;SDS011;15510;52.512;13.300;2022-09-09T05:46:14;7.30;;;3.53;;
28245;SDS011;15510;52.512;13.300;2022-09-09T05:48:42;5.07;;;3.67;;
28245;SDS011;15510;52.512;13.300;2022-09-09T05:51:12;4.72;;;3.15;;
28245;SDS011;15510;52.512;13.300;2022-09-09T05:53:43;6.45;;;3.67;;
28245;SDS011;15510;52.512;13.300;2022-09-09T05:56:11;4.47;;;3.35;;
28245;SDS011;15510;52.512;13.300;2022-09-09T05:58:39;4.28;;;3.55;;
28245;SDS011;15510;52.512;13.300;2022-09-09T06:01:10;4.97;;;3.40;;
28245;SDS011;15510;52.512;13.300;2022-09-09T06:03:40;11.10;;;4.05;;
28245;SDS011;15510;52.512;13.300;2022-09-09T06:06:08;4.00;;;3.60;;
28245;SDS011;15510;52.512;13.300;2022-09-09T06:08:36;4.18;;;2.97;;
28245;SDS011;15510;52.512;13.300;2022-09-09T06:11:06;4.40;;;2.88;;
28245;SDS011;15510;52.512;13.300;2022-09-09T06:13:34;3.70;;;3.10;;
28245;SDS011;15510;52.512;13.300;2022-09-09T06:16:04;2.92;;;2.67;;
28245;SDS011;15510;52.512;13.300;2022-09-09T06:18:32;4.15;;;3.05;;
28245;SDS011;15510;52.512;13.300;2022-09-09T06:20:59;4.93;;;3.45;;
28245;SDS011;15510;52.512;13.300;2022-09-09T06:23:27;5.38;;;3.45;;
28245;SDS011;15510;52.512;13.300;2022-09-09T06:26:27;3.88;;;2.45;;
28245;SDS011;15510;52.512;13.300;2022-09-09T06:28:49;4.97;;;3.10;;
28245;SDS011;15510;52.512;13.300;2022-09-09T06:31:19;4.50;;;2.78;;
28245;SDS011;15510;52.512;13.300;2022-09-09T06:33:48;3.78;;;2.78;;
28245;SDS011;15510;52.512;13.300;2022-09-09T06:36:25;4.07;;;2.97;;
28245;SDS011;15510;52.512;13.300;2022-09-09T06:38:57;5.07;;;2.55;;
28245;SDS011;15510;52.512;13.300;2022-09-09T06:41:26;3.95;;;2.40;;
28245;SDS011;15510;52.512;13.300;2022-09-09T06:43:54;4.75;;;2.50;;
28245;SDS011;15510;52.512;13.300;2022-09-09T06:46:32;2.83;;;2.47;;
28245;SDS011;15510;52.512;13.300;2022-09-09T06:48:59;4.57;;;2.70;;
28245;SDS011;15510;52.512;13.300;2022-09-09T06:51:29;6.05;;;3.08;;
28245;SDS011;15510;52.512;13.300;2022-09-09T06:53:57;3.10;;;2.60;;
28245;SDS011;15510;52.512;13.300;2022-09-09T06:56:28;5.90;;;3.20;;
28245;SDS011;15510;52.512;13.300;2022-09-09T06:58:57;7.60;;;3.30;;
28245;SDS011;15510;52.512;13.300;2022-09-09T07:01:28;3.30;;;2.00;;
28245;SDS011;15510;52.512;13.300;2022-09-09T07:03:59;4.25;;;2.42;;
28245;SDS011;15510;52.512;13.300;2022-09-09T07:06:26;4.63;;;2.30;;
28245;SDS011;15510;52.512;13.300;2022-09-09T07:08:56;6.03;;;2.58;;
28245;SDS011;15510;52.512;13.300;2022-09-09T07:11:27;3.38;;;2.50;;
28245;SDS011;15510;52.512;13.300;2022-09-09T07:13:56;3.22;;;1.83;;
28245;SDS011;15510;52.512;13.300;2022-09-09T07:16:24;3.25;;;1.70;;
28245;SDS011;15510;52.512;13.300;2022-09-09T07:18:54;6.82;;;2.28;;
28245;SDS011;15510;52.512;13.300;2022-09-09T07:21:23;3.90;;;2.25;;
28245;SDS011;15510;52.512;13.300;2022-09-09T07:23:51;2.10;;;1.75;;
28245;SDS011;15510;52.512;13.300;2022-09-09T07:26:19;4.18;;;1.75;;
28245;SDS011;15510;52.512;13.300;2022-09-09T07:28:47;2.47;;;1.88;;
28245;SDS011;15510;52.512;13.300;2022-09-09T07:31:17;3.55;;;1.50;;
28245;SDS011;15510;52.512;13.300;2022-09-09T07:33:46;2.83;;;1.42;;
28245;SDS011;15510;52.512;13.300;2022-09-09T07:36:14;2.35;;;1.40;;
28245;SDS011;15510;52.512;13.300;2022-09-09T07:38:48;3.03;;;1.30;;
28245;SDS011;15510;52.512;13.300;2022-09-09T07:41:18;3.25;;;1.65;;
28245;SDS011;15510;52.512;13.300;2022-09-09T07:43:47;4.40;;;1.77;;
28245;SDS011;15510;52.512;13.300;2022-09-09T07:46:14;2.63;;;1.35;;
28245;SDS011;15510;52.512;13.300;2022-09-09T07:48:46;6.65;;;2.65;;
28245;SDS011;15510;52.512;13.300;2022-09-09T07:51:18;2.67;;;1.35;;
28245;SDS011;15510;52.512;13.300;2022-09-09T07:53:56;4.55;;;1.27;;
28245;SDS011;15510;52.512;13.300;2022-09-09T07:56:23;5.88;;;1.48;;
28245;SDS011;15510;52.512;13.300;2022-09-09T07:58:50;2.25;;;1.00;;
28245;SDS011;15510;52.512;13.300;2022-09-09T08:01:20;2.85;;;1.20;;
28245;SDS011;15510;52.512;13.300;2022-09-09T08:03:55;5.82;;;1.40;;
28245;SDS011;15510;52.512;13.300;2022-09-09T08:06:25;4.95;;;1.25;;
28245;SDS011;15510;52.512;13.300;2022-09-09T08:08:52;3.42;;;1.45;;
28245;SDS011;15510;52.512;13.300;2022-09-09T08:11:20;1.70;;;1.20;;
28245;SDS011;15510;52.512;13.300;2022-09-09T08:13:48;3.33;;;1.23;;
28245;SDS011;15510;52.512;13.300;2022-09-09T08:16:16;1.95;;;1.15;;
28245;SDS011;15510;52.512;13.300;2022-09-09T08:18:43;4.00;;;1.15;;
28245;SDS011;15510;52.512;13.300;2022-09-09T08:23:44;2.70;;;1.52;;
28245;SDS011;15510;52.512;13.300;2022-09-09T08:26:12;2.83;;;1.60;;
28245;SDS011;15510;52.512;13.300;2022-09-09T08:28:40;3.08;;;1.20;;
28245;SDS011;15510;52.512;13.300;2022-09-09T08:31:13;1.58;;;0.88;;
28245;SDS011;15510;52.512;13.300;2022-09-09T08:33:44;4.38;;;1.88;;
28245;SDS011;15510;52.512;13.300;2022-09-09T08:36:15;4.55;;;1.10;;
28245;SDS011;15510;52.512;13.300;2022-09-09T08:38:52;4.57;;;1.40;;
28245;SDS011;15510;52.512;13.300;2022-09-09T08:44:28;3.53;;;1.10;;
28245;SDS011;15510;52.512;13.300;2022-09-09T08:47:12;2.47;;;1.20;;
28245;SDS011;15510;52.512;13.300;2022-09-09T08:55:27;2.90;;;1.38;;
28245;SDS011;15510;52.512;13.300;2022-09-09T08:58:17;3.38;;;1.20;;
28245;SDS011;15510;52.512;13.300;2022-09-09T09:11:16;3.10;;;1.00;;
28245;SDS011;15510;52.512;13.300;2022-09-09T09:13:54;2.33;;;1.13;;
28245;SDS011;15510;52.512;13.300;2022-09-09T09:19:32;2.38;;;1.15;;
28245;SDS011;15510;52.512;13.300;2022-09-09T09:22:15;4.32;;;0.75;;
28245;SDS011;15510;52.512;13.300;2022-09-09T09:24:49;4.65;;;0.93;;
28245;SDS011;15510;52.512;13.300;2022-09-09T09:27:38;4.35;;;0.85;;
28245;SDS011;15510;52.512;13.300;2022-09-09T09:32:38;5.30;;;1.17;;
28245;SDS011;15510;52.512;13.300;2022-09-09T09:35:12;4.32;;;0.98;;
28245;SDS011;15510;52.512;13.300;2022-09-09T09:37:40;4.35;;;1.67;;
28245;SDS011;15510;52.512;13.300;2022-09-09T09:40:12;6.78;;;1.45;;
28245;SDS011;15510;52.512;13.300;2022-09-09T09:42:54;6.35;;;1.50;;
28245;SDS011;15510;52.512;13.300;2022-09-09T09:45:43;4.63;;;1.42;;
28245;SDS011;15510;52.512;13.300;2022-09-09T09:48:14;2.13;;;0.63;;
28245;SDS011;15510;52.512;13.300;2022-09-09T09:50:49;3.10;;;0.95;;
28245;SDS011;15510;52.512;13.300;2022-09-09T09:53:24;6.85;;;1.40;;
28245;SDS011;15510;52.512;13.300;2022-09-09T09:55:59;2.15;;;1.08;;
28245;SDS011;15510;52.512;13.300;2022-09-09T10:01:21;4.13;;;1.40;;
28245;SDS011;15510;52.512;13.300;2022-09-09T10:03:53;4.82;;;0.90;;
28245;SDS011;15510;52.512;13.300;2022-09-09T10:06:29;5.78;;;0.88;;
28245;SDS011;15510;52.512;13.300;2022-09-09T10:08:59;3.72;;;1.05;;
28245;SDS011;15510;52.512;13.300;2022-09-09T10:17:36;3.08;;;0.90;;
28245;SDS011;15510;52.512;13.300;2022-09-09T10:23:05;3.45;;;0.95;;
28245;SDS011;15510;52.512;13.300;2022-09-09T10:28:42;4.15;;;1.33;;
28245;SDS011;15510;52.512;13.300;2022-09-09T10:37:06;0.95;;;0.73;;
28245;SDS011;15510;52.512;13.300;2022-09-09T10:39:42;2.10;;;1.00;;
28245;SDS011;15510;52.512;13.300;2022-09-09T10:42:14;4.43;;;1.35;;
28245;SDS011;15510;52.512;13.300;2022-09-09T10:50:15;2.90;;;0.80;;
28245;SDS011;15510;52.512;13.300;2022-09-09T10:55:20;1.27;;;0.73;;
28245;SDS011;15510;52.512;13.300;2022-09-09T10:57:53;3.47;;;1.20;;
28245;SDS011;15510;52.512;13.300;2022-09-09T11:00:23;5.38;;;1.05;;
28245;SDS011;15510;52.512;13.300;2022-09-09T11:03:01;3.15;;;0.80;;
28245;SDS011;15510;52.512;13.300;2022-09-09T11:05:30;2.35;;;1.08;;
28245;SDS011;15510;52.512;13.300;2022-09-09T11:08:01;1.92;;;0.70;;
28245;SDS011;15510;52.512;13.300;2022-09-09T11:10:39;2.75;;;0.95;;
28245;SDS011;15510;52.512;13.300;2022-09-09T11:13:16;3.78;;;1.08;;
28245;SDS011;15510;52.512;13.300;2022-09-09T11:15:46;3.33;;;1.10;;
28245;SDS011;15510;52.512;13.300;2022-09-09T11:18:21;2.75;;;1.48;;
28245;SDS011;15510;52.512;13.300;2022-09-09T11:20:49;4.07;;;0.80;;
28245;SDS011;15510;52.512;13.300;2022-09-09T11:23:24;2.70;;;0.60;;
28245;SDS011;15510;52.512;13.300;2022-09-09T11:25:57;1.77;;;0.55;;
28245;SDS011;15510;52.512;13.300;2022-09-09T11:37:00;5.45;;;0.70;;
28245;SDS011;15510;52.512;13.300;2022-09-09T11:42:24;1.67;;;0.35;;
28245;SDS011;15510;52.512;13.300;2022-09-09T11:44:50;1.85;;;0.50;;
28245;SDS011;15510;52.512;13.300;2022-09-09T11:47:37;2.42;;;0.70;;
28245;SDS011;15510;52.512;13.300;2022-09-09T11:52:41;8.32;;;1.70;;
28245;SDS011;15510;52.512;13.300;2022-09-09T11:55:32;1.92;;;0.55;;
28245;SDS011;15510;52.512;13.300;2022-09-09T12:03:02;1.48;;;0.50;;
28245;SDS011;15510;52.512;13.300;2022-09-09T12:05:44;1.98;;;0.70;;
28245;SDS011;15510;52.512;13.300;2022-09-09T12:08:11;3.35;;;0.70;;
28245;SDS011;15510;52.512;13.300;2022-09-09T12:10:53;2.90;;;0.75;;
28245;SDS011;15510;52.512;13.300;2022-09-09T12:13:21;2.70;;;0.80;;
28245;SDS011;15510;52.512;13.300;2022-09-09T12:15:55;2.00;;;0.60;;
28245;SDS011;15510;52.512;13.300;2022-09-09T12:18:23;3.28;;;0.88;;
28245;SDS011;15510;52.512;13.300;2022-09-09T12:20:52;1.50;;;0.40;;
28245;SDS011;15510;52.512;13.300;2022-09-09T12:28:25;3.28;;;0.88;;
28245;SDS011;15510;52.512;13.300;2022-09-09T12:31:07;2.33;;;0.73;;
28245;SDS011;15510;52.512;13.300;2022-09-09T12:33:53;1.25;;;0.50;;
28245;SDS011;15510;52.512;13.300;2022-09-09T12:36:20;3.65;;;0.70;;
28245;SDS011;15510;52.512;13.300;2022-09-09T12:38:49;3.03;;;1.00;;
28245;SDS011;15510;52.512;13.300;2022-09-09T12:41:23;4.30;;;0.70;;
28245;SDS011;15510;52.512;13.300;2022-09-09T12:43:50;4.90;;;0.52;;
28245;SDS011;15510;52.512;13.300;2022-09-09T12:46:39;1.08;;;0.80;;
28245;SDS011;15510;52.512;13.300;2022-09-09T12:49:24;3.25;;;0.57;;
28245;SDS011;15510;52.512;13.300;2022-09-09T12:51:51;2.97;;;0.98;;
28245;SDS011;15510;52.512;13.300;2022-09-09T12:54:17;3.03;;;0.90;;
28245;SDS011;15510;52.512;13.300;2022-09-09T12:56:45;2.67;;;0.80;;
28245;SDS011;15510;52.512;13.300;2022-09-09T12:59:21;1.27;;;0.63;;
28245;SDS011;15510;52.512;13.300;2022-09-09T13:01:58;1.98;;;0.85;;
28245;SDS011;15510;52.512;13.300;2022-09-09T13:04:24;3.65;;;0.88;;
28245;SDS011;15510;52.512;13.300;2022-09-09T13:06:50;3.33;;;0.80;;
28245;SDS011;15510;52.512;13.300;2022-09-09T13:09:18;5.22;;;2.42;;
28245;SDS011;15510;52.512;13.300;2022-09-09T13:11:49;3.75;;;2.90;;
28245;SDS011;15510;52.512;13.300;2022-09-09T13:14:27;5.00;;;2.88;;
28245;SDS011;15510;52.512;13.300;2022-09-09T13:17:01;4.50;;;1.25;;
28245;SDS011;15510;52.512;13.300;2022-09-09T13:19:32;4.72;;;1.88;;
28245;SDS011;15510;52.512;13.300;2022-09-09T13:22:11;2.95;;;1.52;;
28245;SDS011;15510;52.512;13.300;2022-09-09T13:24:38;4.40;;;2.15;;
28245;SDS011;15510;52.512;13.300;2022-09-09T13:29:52;6.78;;;3.85;;
28245;SDS011;15510;52.512;13.300;2022-09-09T13:32:20;3.67;;;2.78;;
28245;SDS011;15510;52.512;13.300;2022-09-09T13:34:56;6.28;;;1.40;;
28245;SDS011;15510;52.512;13.300;2022-09-09T13:37:24;3.05;;;1.13;;
28245;SDS011;15510;52.512;13.300;2022-09-09T13:39:55;4.10;;;2.50;;
28245;SDS011;15510;52.512;13.300;2022-09-09T13:42:22;4.63;;;0.98;;
28245;SDS011;15510;52.512;13.300;2022-09-09T13:44:56;3.03;;;0.75;;
28245;SDS011;15510;52.512;13.300;2022-09-09T13:47:30;3.65;;;0.80;;
28245;SDS011;15510;52.512;13.300;2022-09-09T13:49:58;5.45;;;1.10;;
28245;SDS011;15510;52.512;13.300;2022-09-09T13:52:23;2.20;;;0.57;;
28245;SDS011;15510;52.512;13.300;2022-09-09T13:54:52;2.08;;;0.80;;
28245;SDS011;15510;52.512;13.300;2022-09-09T13:57:20;2.13;;;0.60;;
28245;SDS011;15510;52.512;13.300;2022-09-09T13:59:49;2.58;;;0.50;;
28245;SDS011;15510;52.512;13.300;2022-09-09T14:02:15;2.50;;;0.57;;
28245;SDS011;15510;52.512;13.300;2022-09-09T14:04:42;3.00;;;0.88;;
28245;SDS011;15510;52.512;13.300;2022-09-09T14:07:09;2.47;;;0.80;;
28245;SDS011;15510;52.512;13.300;2022-09-09T14:09:38;4.32;;;1.70;;
28245;SDS011;15510;52.512;13.300;2022-09-09T14:12:05;3.10;;;0.85;;
28245;SDS011;15510;52.512;13.300;2022-09-09T14:14:31;1.77;;;0.47;;
28245;SDS011;15510;52.512;13.300;2022-09-09T14:16:56;3.25;;;0.70;;
28245;SDS011;15510;52.512;13.300;2022-09-09T14:19:22;4.47;;;0.90;;
28245;SDS011;15510;52.512;13.300;2022-09-09T14:21:47;2.40;;;0.65;;
28245;SDS011;15510;52.512;13.300;2022-09-09T14:24:13;3.78;;;1.08;;
28245;SDS011;15510;52.512;13.300;2022-09-09T14:26:39;3.15;;;2.22;;
28245;SDS011;15510;52.512;13.300;2022-09-09T14:29:05;3.47;;;1.60;;
28245;SDS011;15510;52.512;13.300;2022-09-09T14:31:31;10.63;;;8.00;;
28245;SDS011;15510;52.512;13.300;2022-09-09T14:33:57;5.85;;;3.55;;
28245;SDS011;15510;52.512;13.300;2022-09-09T14:36:28;3.15;;;0.90;;
28245;SDS011;15510;52.512;13.300;2022-09-09T14:38:55;6.47;;;1.60;;
28245;SDS011;15510;52.512;13.300;2022-09-09T14:41:20;1.77;;;0.80;;
28245;SDS011;15510;52.512;13.300;2022-09-09T14:43:47;2.85;;;0.68;;
28245;SDS011;15510;52.512;13.300;2022-09-09T14:46:14;2.55;;;1.30;;
28245;SDS011;15510;52.512;13.300;2022-09-09T14:48:41;2.58;;;1.13;;
28245;SDS011;15510;52.512;13.300;2022-09-09T14:51:16;5.13;;;1.33;;
28245;SDS011;15510;52.512;13.300;2022-09-09T14:53:44;5.38;;;2.00;;
28245;SDS011;15510;52.512;13.300;2022-09-09T14:58:38;6.28;;;4.43;;
28245;SDS011;15510;52.512;13.300;2022-09-09T15:01:14;5.45;;;1.52;;
28245;SDS011;15510;52.512;13.300;2022-09-09T15:03:41;2.58;;;1.27;;
28245;SDS011;15510;52.512;13.300;2022-09-09T15:06:09;4.30;;;1.27;;
28245;SDS011;15510;52.512;13.300;2022-09-09T15:08:40;2.78;;;0.80;;
28245;SDS011;15510;52.512;13.300;2022-09-09T15:11:07;3.58;;;1.48;;
28245;SDS011;15510;52.512;13.300;2022-09-09T15:13:36;2.40;;;1.27;;
28245;SDS011;15510;52.512;13.300;2022-09-09T15:16:09;6.93;;;2.80;;
28245;SDS011;15510;52.512;13.300;2022-09-09T15:18:39;3.65;;;1.63;;
28245;SDS011;15510;52.512;13.300;2022-09-09T15:21:15;2.08;;;0.75;;
28245;SDS011;15510;52.512;13.300;2022-09-09T15:23:44;4.60;;;1.13;;
28245;SDS011;15510;52.512;13.300;2022-09-09T15:26:10;2.80;;;0.90;;
28245;SDS011;15510;52.512;13.300;2022-09-09T15:28:39;2.75;;;1.20;;
28245;SDS011;15510;52.512;13.300;2022-09-09T15:31:06;4.25;;;1.63;;
28245;SDS011;15510;52.512;13.300;2022-09-09T15:33:34;4.68;;;1.60;;
28245;SDS011;15510;52.512;13.300;2022-09-09T15:36:14;5.20;;;1.33;;
28245;SDS011;15510;52.512;13.300;2022-09-09T15:38:40;2.67;;;1.20;;
28245;SDS011;15510;52.512;13.300;2022-09-09T15:41:05;2.03;;;1.17;;
28245;SDS011;15510;52.512;13.300;2022-09-09T15:43:31;4.68;;;0.93;;
28245;SDS011;15510;52.512;13.300;2022-09-09T15:45:58;2.80;;;1.00;;
28245;SDS011;15510;52.512;13.300;2022-09-09T15:48:30;5.60;;;1.95;;
28245;SDS011;15510;52.512;13.300;2022-09-09T15:51:03;4.20;;;1.20;;
28245;SDS011;15510;52.512;13.300;2022-09-09T15:53:29;5.82;;;1.88;;
28245;SDS011;15510;52.512;13.300;2022-09-09T15:55:57;3.05;;;1.15;;
28245;SDS011;15510;52.512;13.300;2022-09-09T15:58:23;4.47;;;1.40;;
28245;SDS011;15510;52.512;13.300;2022-09-09T16:00:49;3.50;;;1.20;;
28245;SDS011;15510;52.512;13.300;2022-09-09T16:03:15;2.90;;;1.13;;
28245;SDS011;15510;52.512;13.300;2022-09-09T16:05:40;6.95;;;3.50;;
28245;SDS011;15510;52.512;13.300;2022-09-09T16:08:06;9.20;;;6.65;;
28245;SDS011;15510;52.512;13.300;2022-09-09T16:10:33;4.68;;;3.55;;
28245;SDS011;15510;52.512;13.300;2022-09-09T16:12:58;3.33;;;1.60;;
28245;SDS011;15510;52.512;13.300;2022-09-09T16:15:24;3.00;;;1.50;;
28245;SDS011;15510;52.512;13.300;2022-09-09T16:17:52;4.75;;;1.85;;
28245;SDS011;15510;52.512;13.300;2022-09-09T16:20:18;5.53;;;1.73;;
28245;SDS011;15510;52.512;13.300;2022-09-09T16:22:45;4.00;;;1.40;;
28245;SDS011;15510;52.512;13.300;2022-09-09T16:25:11;7.45;;;1.42;;
28245;SDS011;15510;52.512;13.300;2022-09-09T16:27:36;5.15;;;1.38;;
28245;SDS011;15510;52.512;13.300;2022-09-09T16:30:02;5.45;;;1.20;;
28245;SDS011;15510;52.512;13.300;2022-09-09T16:32:28;2.55;;;1.20;;
28245;SDS011;15510;52.512;13.300;2022-09-09T16:34:54;5.68;;;2.45;;
28245;SDS011;15510;52.512;13.300;2022-09-09T16:37:21;4.82;;;1.42;;
28245;SDS011;15510;52.512;13.300;2022-09-09T16:39:46;4.65;;;1.52;;
28245;SDS011;15510;52.512;13.300;2022-09-09T16:42:12;6.03;;;1.60;;
28245;SDS011;15510;52.512;13.300;2022-09-09T16:44:38;4.45;;;1.40;;
28245;SDS011;15510;52.512;13.300;2022-09-09T16:47:03;6.30;;;3.58;;
28245;SDS011;15510;52.512;13.300;2022-09-09T16:49:29;9.52;;;6.57;;